Time;durP1;ratioP1;P1;durP2;ratioP2;P2;SDS_P1;SDS_P2;PMS_P1;PMS_P2;Temp;Humidity;BMP_temperature;BMP_pressure;BME280_temperature;BME280_humidity;BME280_pressure;Samples;Min_cycle;Max_cycle;Signal;HPM_P1;HPM_P2
2021/04/12 00:00:48;;;;;;;2.05;1.95;;;;;;;3.14;81.81;96490.59;5060023;28;20041;-74
2021/04/12 00:03:43;;;;;;;2.17;2.08;;;;;;;3.05;82.02;96493.22;5058828;28;20036;-75
2021/04/12 00:06:18;;;;;;;2.00;1.90;;;;;;;2.97;81.45;96501.03;5063704;28;20033;-76
2021/04/12 00:09:00;;;;;;;2.40;2.20;;;;;;;2.92;81.96;96499.91;5057661;28;20421;-74
2021/04/12 00:11:37;;;;;;;2.40;2.30;;;;;;;2.88;81.72;96512.41;5047189;28;20044;-75
2021/04/12 00:14:27;;;;;;;2.22;2.13;;;;;;;2.86;81.89;96522.13;5074203;28;20055;-75
2021/04/12 00:17:06;;;;;;;2.13;2.03;;;;;;;2.81;81.91;96527.81;5065055;28;20055;-76
2021/04/12 00:19:47;;;;;;;2.38;2.28;;;;;;;2.76;82.57;96532.69;5067790;28;20048;-76
2021/04/12 00:22:15;;;;;;;2.03;1.92;;;;;;;2.74;82.16;96528.66;5055136;28;20037;-75
2021/04/12 00:24:50;;;;;;;2.78;2.58;;;;;;;2.71;82.28;96536.72;5059893;28;20036;-75
2021/04/12 00:27:34;;;;;;;2.58;2.47;;;;;;;2.62;82.08;96544.53;5055844;28;20040;-75
2021/04/12 00:30:15;;;;;;;2.28;2.17;;;;;;;2.57;82.25;96541.63;5069372;28;20389;-75
2021/04/12 00:33:08;;;;;;;2.08;1.98;;;;;;;2.52;82.69;96545.69;5062063;28;20048;-75
2021/04/12 00:35:52;;;;;;;2.35;2.25;;;;;;;2.45;82.72;96545.53;5015963;28;20052;-75
2021/04/12 00:38:59;;;;;;;2.05;1.95;;;;;;;2.41;82.95;96570.13;5057608;28;20041;-76
2021/04/12 00:41:57;;;;;;;2.40;2.30;;;;;;;2.35;82.74;96563.84;5061026;28;20044;-76
2021/04/12 00:44:57;;;;;;;2.33;2.22;;;;;;;2.31;83.35;96574.66;5059568;28;20378;-76
2021/04/12 00:48:02;;;;;;;2.50;2.33;;;;;;;2.28;82.68;96572.41;5056012;28;20049;-76
2021/04/12 00:51:23;;;;;;;3.00;2.80;;;;;;;2.18;83.29;96578.56;5047246;28;20037;-75
2021/04/12 00:54:31;;;;;;;2.03;1.92;;;;;;;2.09;82.95;96584.69;5019698;28;20053;-74
2021/04/12 00:56:57;;;;;;;3.03;2.80;;;;;;;2.08;82.29;96583.09;5061995;28;20040;-74
2021/04/12 00:59:45;;;;;;;3.03;2.83;;;;;;;2.03;82.86;96595.66;5059010;28;20409;-76
2021/04/12 01:02:26;;;;;;;2.92;2.72;;;;;;;1.97;82.97;96591.94;5051188;28;20060;-77
2021/04/12 01:05:31;;;;;;;3.10;2.90;;;;;;;1.95;83.80;96600.84;5065978;28;20508;-75
2021/04/12 01:08:19;;;;;;;3.65;3.35;;;;;;;1.94;83.73;96597.44;5066787;28;20051;-75
2021/04/12 01:11:07;;;;;;;3.78;3.47;;;;;;;1.98;83.31;96603.91;5064117;28;20060;-75
2021/04/12 01:13:45;;;;;;;4.38;3.97;;;;;;;1.92;83.80;96619.28;5050347;28;20041;-75
2021/04/12 01:16:23;;;;;;;4.82;4.43;;;;;;;1.89;82.85;96627.31;5061659;28;20037;-74
2021/04/12 01:19:16;;;;;;;3.85;3.45;;;;;;;1.81;82.76;96620.38;5066258;28;20048;-74
2021/04/12 01:21:51;;;;;;;3.78;3.42;;;;;;;1.68;83.18;96623.44;5052203;28;20047;-76
2021/04/12 01:24:42;;;;;;;4.63;3.75;;;;;;;1.60;83.57;96611.28;5059727;28;20033;-75
2021/04/12 01:27:27;;;;;;;4.25;3.88;;;;;;;1.55;84.12;96618.69;5058875;28;20036;-75
2021/04/12 01:30:12;;;;;;;3.85;3.55;;;;;;;1.50;83.04;96618.34;5057124;28;20048;-75
2021/04/12 01:33:22;;;;;;;4.60;4.20;;;;;;;1.48;84.33;96625.44;5058937;28;20485;-74
2021/04/12 01:36:10;;;;;;;4.10;3.80;;;;;;;1.48;83.45;96634.97;5058719;28;20045;-75
2021/04/12 01:38:38;;;;;;;4.00;3.70;;;;;;;1.44;83.09;96636.25;5061126;28;20059;-74
2021/04/12 01:41:43;;;;;;;5.10;4.65;;;;;;;1.40;83.68;96644.31;5064510;28;20039;-75
2021/04/12 01:44:36;;;;;;;5.18;4.78;;;;;;;1.41;83.98;96652.91;5055044;28;20048;-75
2021/04/12 01:47:07;;;;;;;5.07;4.68;;;;;;;1.42;83.73;96660.47;5042196;28;20049;-75
2021/04/12 01:49:40;;;;;;;4.43;4.13;;;;;;;1.42;83.70;96659.66;5041268;28;20115;-75
2021/04/12 01:52:40;;;;;;;5.95;5.35;;;;;;;1.41;84.29;96671.78;5042778;28;20493;-74
2021/04/12 01:55:27;;;;;;;5.70;5.05;;;;;;;1.42;84.68;96677.75;5047254;28;20048;-75
2021/04/12 01:58:15;;;;;;;4.97;4.50;;;;;;;1.47;84.58;96690.22;5003369;28;20053;-74
2021/04/12 02:00:47;;;;;;;5.15;4.75;;;;;;;1.50;83.93;96695.88;5037544;28;20048;-74
2021/04/12 02:03:24;;;;;;;5.03;4.63;;;;;;;1.46;83.39;96698.94;5035796;28;20037;-74
2021/04/12 02:06:09;;;;;;;5.00;4.60;;;;;;;1.37;83.92;96698.91;5039146;28;20037;-74
2021/04/12 02:08:41;;;;;;;5.45;4.97;;;;;;;1.38;84.08;96699.69;5035062;28;20033;-74
2021/04/12 02:11:19;;;;;;;5.65;5.13;;;;;;;1.38;83.68;96700.50;5035503;28;20465;-75
2021/04/12 02:14:00;;;;;;;4.85;4.45;;;;;;;1.36;83.90;96697.25;5032123;28;20378;-75
2021/04/12 02:16:44;;;;;;;4.82;4.43;;;;;;;1.40;83.79;96695.19;5037052;28;20045;-75
2021/04/12 02:19:31;;;;;;;;;;;;;;;1.39;84.56;96699.56;5039019;28;20462;-74
2021/04/12 02:22:08;;;;;;;4.38;3.97;;;;;;;1.39;83.88;96714.25;5027636;28;19917;-74
2021/04/12 02:25:15;;;;;;;3.90;3.60;;;;;;;1.47;84.34;96718.63;5039591;28;20052;-74
2021/04/12 02:28:19;;;;;;;4.75;4.35;;;;;;;1.45;84.17;96711.06;5023346;28;20030;-75
2021/04/12 02:31:23;;;;;;;4.43;4.03;;;;;;;1.45;84.38;96723.97;5037243;28;20034;-74
2021/04/12 02:34:05;;;;;;;4.43;4.05;;;;;;;1.45;83.76;96723.97;5034529;28;20053;-74
2021/04/12 02:37:08;;;;;;;5.07;4.38;;;;;;;1.48;84.18;96730.59;5039892;28;20044;-74
2021/04/12 02:39:56;;;;;;;4.90;4.50;;;;;;;1.48;84.32;96733.19;5041531;28;20060;-74
2021/04/12 02:42:48;;;;;;;5.07;4.60;;;;;;;1.50;84.06;96744.19;5030640;28;20488;-75
2021/04/12 02:45:30;;;;;;;5.30;4.80;;;;;;;1.54;84.27;96742.91;5041659;28;20444;-75
2021/04/12 02:47:57;;;;;;;5.60;5.03;;;;;;;1.54;83.73;96737.75;5011143;28;20049;-74
2021/04/12 02:50:58;;;;;;;5.63;5.13;;;;;;;1.52;83.97;96753.41;5033127;28;20047;-74
2021/04/12 02:53:34;;;;;;;5.90;5.30;;;;;;;1.49;84.02;96763.22;5045627;28;20470;-75
2021/04/12 02:56:25;;;;;;;5.57;5.07;;;;;;;1.49;84.51;96765.81;5043847;28;20041;-75
2021/04/12 02:59:00;;;;;;;5.50;5.00;;;;;;;1.48;84.45;96782.28;5037461;28;20035;-75
2021/04/12 03:02:04;;;;;;;6.32;5.72;;;;;;;1.44;84.59;96781.78;5036905;28;20050;-76
2021/04/12 03:04:48;;;;;;;6.05;5.47;;;;;;;1.45;84.35;96780.84;5034560;28;20045;-77
2021/04/12 03:07:23;;;;;;;5.68;5.18;;;;;;;1.46;84.43;96776.47;5035874;28;20052;-76
2021/04/12 03:10:20;;;;;;;6.35;5.75;;;;;;;1.48;84.63;96784.88;5043326;28;20489;-75
2021/04/12 03:12:58;;;;;;;6.07;5.40;;;;;;;1.49;84.48;96787.31;5012894;28;20043;-76
2021/04/12 03:15:49;;;;;;;5.80;5.30;;;;;;;1.51;84.37;96790.56;5035619;28;20458;-76
2021/04/12 03:18:21;;;;;;;5.30;4.80;;;;;;;1.56;84.41;96805.59;5034827;28;20034;-77
2021/04/12 03:21:17;;;;;;;5.47;4.82;;;;;;;1.60;84.37;96794.81;5026105;28;20029;-76
2021/04/12 03:24:03;;;;;;;5.32;4.82;;;;;;;1.62;84.14;96789.50;5020102;28;20041;-76
2021/04/12 03:26:52;;;;;;;4.70;4.30;;;;;;;1.60;84.14;96784.47;5018343;28;20049;-75
2021/04/12 03:29:28;;;;;;;5.88;5.28;;;;;;;1.59;83.91;96782.03;5032201;28;20036;-74
2021/04/12 03:32:30;;;;;;;5.53;4.90;;;;;;;1.58;84.33;96795.94;5046428;28;20052;-75
2021/04/12 03:35:13;;;;;;;5.90;5.30;;;;;;;1.57;83.57;96799.47;5044621;28;20033;-75
2021/04/12 03:37:59;;;;;;;5.10;4.65;;;;;;;1.53;84.09;96793.78;5030223;28;20053;-75
2021/04/12 03:40:38;;;;;;;5.07;4.68;;;;;;;1.51;84.18;96803.50;5025416;28;20049;-74
2021/04/12 03:43:26;;;;;;;5.28;4.78;;;;;;;1.49;84.84;96813.16;5036225;28;20029;-75
2021/04/12 03:46:20;;;;;;;6.22;5.72;;;;;;;1.44;84.37;96812.78;5051785;28;20056;-74
2021/04/12 03:48:49;;;;;;;5.90;5.27;;;;;;;1.39;83.88;96822.78;5047532;28;20049;-75
2021/04/12 03:51:30;;;;;;;4.70;4.30;;;;;;;1.36;84.08;96843.75;5051390;28;20064;-76
2021/04/12 03:54:05;;;;;;;5.90;5.05;;;;;;;1.37;84.33;96848.75;5035171;28;20405;-74
2021/04/12 03:56:49;;;;;;;4.97;4.57;;;;;;;1.34;84.68;96854.22;5045026;28;20500;-74
2021/04/12 03:59:21;;;;;;;4.95;4.45;;;;;;;1.29;84.67;96851.28;5041401;28;20041;-74
2021/04/12 04:01:59;;;;;;;5.25;4.70;;;;;;;1.27;84.71;96848.03;5051302;28;20041;-74
2021/04/12 04:05:06;;;;;;;4.47;4.07;;;;;;;1.23;85.07;96846.72;5049683;28;20028;-74
2021/04/12 04:07:53;;;;;;;4.10;3.70;;;;;;;1.20;85.04;96852.19;5024270;28;20045;-74
2021/04/12 04:10:44;;;;;;;4.10;3.72;;;;;;;1.19;85.07;96848.78;5030777;28;20040;-74
2021/04/12 04:13:35;;;;;;;4.95;3.80;;;;;;;1.22;85.54;96847.69;5035008;28;20197;-75
2021/04/12 04:16:16;;;;;;;3.72;3.42;;;;;;;1.23;85.18;96849.28;5031291;28;20052;-75
2021/04/12 04:19:05;;;;;;;3.80;3.50;;;;;;;1.23;85.22;96853.66;5043325;28;20048;-74
2021/04/12 04:21:50;;;;;;;3.97;3.58;;;;;;;1.23;85.19;96861.41;5036332;28;20041;-75
2021/04/12 04:24:35;;;;;;;4.03;3.63;;;;;;;1.23;85.19;96866.56;5046892;28;20042;-75
2021/04/12 04:27:04;;;;;;;3.83;3.53;;;;;;;1.20;84.78;96880.59;5038595;28;20423;-75
2021/04/12 04:29:51;;;;;;;5.68;4.25;;;;;;;1.20;85.08;96875.44;5040473;28;20413;-75
2021/04/12 04:33:16;;;;;;;4.28;3.78;;;;;;;1.17;85.68;96876.53;5044336;28;20041;-75
2021/04/12 04:36:21;;;;;;;3.88;3.58;;;;;;;1.19;85.53;96887.53;4976018;28;20138;-74
2021/04/12 04:38:50;;;;;;;;;;;;;;;1.26;85.81;96889.53;4983483;28;20462;-74
2021/04/12 04:41:35;;;;;;;4.10;3.38;;;;;;;1.29;85.34;96892.63;5027969;28;19920;-74
2021/04/12 04:44:34;;;;;;;3.75;3.45;;;;;;;1.34;85.36;96889.59;5044176;28;20033;-74
2021/04/12 04:47:19;;;;;;;3.45;3.15;;;;;;;1.39;85.24;96895.94;5039160;28;20057;-74
2021/04/12 04:49:45;;;;;;;;;;;;;;;1.44;85.00;96905.03;5029283;28;20056;-74
2021/04/12 04:52:25;;;;;;;3.35;3.05;;;;;;;1.40;84.69;96909.66;5044613;28;19916;-74
2021/04/12 04:55:34;;;;;;;3.75;3.45;;;;;;;1.42;84.86;96912.91;5045663;28;20400;-75
2021/04/12 04:58:37;;;;;;;3.88;3.55;;;;;;;1.41;84.67;96925.03;5030525;28;20041;-75
2021/04/12 05:01:22;;;;;;;4.07;3.67;;;;;;;1.38;84.75;96930.47;5044949;28;20037;-74
2021/04/12 05:03:59;;;;;;;3.75;3.45;;;;;;;1.36;84.77;96931.59;5044056;28;20044;-73
2021/04/12 05:06:37;;;;;;;4.00;3.70;;;;;;;1.33;84.45;96934.50;5038439;28;20401;-74
2021/04/12 05:09:33;;;;;;;3.17;2.88;;;;;;;1.27;84.78;96935.88;5044889;28;20029;-76
2021/04/12 05:12:36;;;;;;;2.90;2.70;;;;;;;1.29;84.96;96946.88;5033873;28;20040;-74
2021/04/12 05:15:40;;;;;;;2.88;2.67;;;;;;;1.33;85.15;96953.38;5043460;28;20025;-74
2021/04/12 05:18:32;;;;;;;2.67;2.47;;;;;;;1.36;84.89;96963.41;5037277;28;20049;-74
2021/04/12 05:21:01;;;;;;;2.53;2.33;;;;;;;1.36;84.44;96975.53;5043564;28;20509;-74
2021/04/12 05:24:01;;;;;;;3.45;2.92;;;;;;;1.31;84.63;96973.38;5051092;28;20037;-74
2021/04/12 05:26:56;;;;;;;2.78;2.58;;;;;;;1.19;84.56;96970.19;5043757;28;20040;-74
2021/04/12 05:29:44;;;;;;;3.58;3.28;;;;;;;1.11;84.52;96974.47;5038515;28;20041;-74
2021/04/12 05:32:19;;;;;;;3.22;2.92;;;;;;;1.00;84.91;96972.91;5042292;28;20029;-74
2021/04/12 05:35:14;;;;;;;3.22;2.92;;;;;;;0.98;85.68;96982.56;5026146;28;20029;-73
2021/04/12 05:37:46;;;;;;;3.53;3.22;;;;;;;0.96;85.34;96979.31;5048127;28;20038;-74
2021/04/12 05:40:57;;;;;;;3.38;3.08;;;;;;;0.97;86.09;96996.44;5044085;28;20040;-74
2021/04/12 05:43:48;;;;;;;3.65;3.35;;;;;;;0.97;85.49;97002.41;5022312;28;20049;-74
2021/04/12 05:47:01;;;;;;;3.70;3.30;;;;;;;1.02;85.93;97005.38;5030572;28;20049;-74
2021/04/12 05:49:58;;;;;;;4.25;3.40;;;;;;;1.08;85.30;97014.31;5040690;28;20053;-74
2021/04/12 05:52:52;;;;;;;4.20;3.80;;;;;;;1.08;84.99;97018.69;5043833;28;20481;-74
2021/04/12 05:55:22;;;;;;;4.40;4.00;;;;;;;1.12;84.94;97027.78;5041305;28;20378;-74
2021/04/12 05:58:05;;;;;;;4.75;4.35;;;;;;;1.14;84.67;97026.66;5038922;28;20398;-74
2021/04/12 06:01:03;;;;;;;4.38;3.97;;;;;;;1.14;84.16;97036.19;5045209;28;20477;-74
2021/04/12 06:03:59;;;;;;;4.25;3.85;;;;;;;1.17;84.63;97052.19;4973772;28;20045;-74
2021/04/12 06:07:10;;;;;;;4.97;4.53;;;;;;;1.24;84.79;97064.53;4998904;28;20045;-74
2021/04/12 06:10:04;;;;;;;4.18;3.88;;;;;;;1.32;83.80;97067.22;5030710;28;20040;-74
2021/04/12 06:12:36;;;;;;;5.47;4.38;;;;;;;1.36;84.29;97068.56;5049918;28;20473;-75
2021/04/12 06:15:41;;;;;;;4.88;4.47;;;;;;;1.40;84.08;97075.06;5023991;28;20045;-75
2021/04/12 06:18:26;;;;;;;6.07;5.47;;;;;;;1.45;84.21;97078.03;5036849;28;20469;-75
2021/04/12 06:21:01;;;;;;;6.18;5.57;;;;;;;1.47;83.67;97081.31;5023702;28;20029;-74
2021/04/12 06:23:41;;;;;;;6.85;5.35;;;;;;;1.50;84.21;97087.94;5048689;28;20392;-74
2021/04/12 06:26:32;;;;;;;6.07;5.47;;;;;;;1.56;84.22;97090.75;5046262;28;20469;-74
2021/04/12 06:29:17;;;;;;;7.20;5.93;;;;;;;1.62;84.32;97094.53;5022415;28;20048;-74
2021/04/12 06:32:24;;;;;;;6.32;5.78;;;;;;;1.61;84.45;97091.13;5042252;28;20041;-74
2021/04/12 06:35:38;;;;;;;6.28;5.68;;;;;;;1.65;84.84;97103.78;4980365;28;20474;-74
2021/04/12 06:38:22;;;;;;;6.47;5.88;;;;;;;1.65;83.83;97107.16;5020507;28;20052;-74
2021/04/12 06:41:04;;;;;;;6.60;6.00;;;;;;;1.65;84.18;97119.28;5040110;28;20032;-75
2021/04/12 06:44:04;;;;;;;6.80;6.20;;;;;;;1.66;83.80;97110.56;5043591;28;20437;-76
2021/04/12 06:46:57;;;;;;;6.72;5.90;;;;;;;1.69;83.74;97115.47;5037032;28;20045;-76
2021/04/12 06:50:01;;;;;;;7.20;5.75;;;;;;;1.77;84.31;97118.13;5042119;28;20041;-74
2021/04/12 06:52:52;;;;;;;7.88;6.25;;;;;;;1.83;84.20;97117.53;5043389;28;20040;-75
2021/04/12 06:55:20;;;;;;;7.40;6.70;;;;;;;1.87;83.74;97131.81;5032268;28;20457;-74
2021/04/12 06:58:35;;;;;;;7.22;5.65;;;;;;;1.89;83.80;97131.66;5040076;28;20052;-75
2021/04/12 07:01:39;;;;;;;6.40;5.80;;;;;;;1.93;83.15;97127.81;5042789;28;20067;-74
2021/04/12 07:04:14;;;;;;;8.25;6.07;;;;;;;1.93;83.38;97136.41;5027534;28;20040;-74
2021/04/12 07:06:54;;;;;;;7.13;6.43;;;;;;;1.88;82.80;97150.72;5041331;28;20044;-75
2021/04/12 07:09:39;;;;;;;7.68;6.15;;;;;;;1.75;82.60;97146.72;5042508;28;20402;-75
2021/04/12 07:12:33;;;;;;;6.75;6.05;;;;;;;1.77;83.54;97149.16;5045785;28;20033;-74
2021/04/12 07:14:59;;;;;;;7.90;6.10;;;;;;;1.81;83.58;97158.25;5029438;28;20028;-75
2021/04/12 07:17:49;;;;;;;10.10;6.47;;;;;;;1.86;83.43;97160.41;5046632;28;20042;-74
2021/04/12 07:20:45;;;;;;;7.10;6.07;;;;;;;1.95;83.64;97162.09;5052779;28;20497;-74
2021/04/12 07:23:36;;;;;;;6.80;5.63;;;;;;;2.06;83.88;97159.34;5051380;28;20037;-75
2021/04/12 07:26:26;;;;;;;7.10;6.40;;;;;;;2.20;84.29;97169.16;5044625;28;20029;-74
2021/04/12 07:29:23;;;;;;;5.88;5.35;;;;;;;2.34;83.42;97167.81;5045292;28;20040;-75
2021/04/12 07:31:49;;;;;;;7.70;6.95;;;;;;;2.44;83.54;97171.16;5046381;28;20037;-75
2021/04/12 07:34:57;;;;;;;8.15;6.72;;;;;;;2.51;82.38;97178.34;5044470;28;20036;-74
2021/04/12 07:37:53;;;;;;;7.38;6.68;;;;;;;2.46;81.68;97176.19;5035346;28;20059;-75
2021/04/12 07:41:01;;;;;;;6.82;6.03;;;;;;;2.44;82.21;97172.94;5046956;28;20044;-74
2021/04/12 07:43:58;;;;;;;6.63;6.03;;;;;;;2.52;82.69;97185.13;5047438;28;20060;-75
2021/04/12 07:47:01;;;;;;;6.13;5.63;;;;;;;2.63;82.67;97188.31;5047097;28;20055;-74
2021/04/12 07:49:55;;;;;;;7.30;6.57;;;;;;;2.72;81.56;97191.78;5027959;28;20061;-74
2021/04/12 07:52:42;;;;;;;7.60;6.77;;;;;;;2.67;81.25;97193.19;5042544;28;20037;-74
2021/04/12 07:55:52;;;;;;;7.45;6.75;;;;;;;2.72;82.41;97202.13;5039562;28;20033;-74
2021/04/12 07:58:53;;;;;;;8.13;7.32;;;;;;;2.81;81.67;97209.03;5039932;28;20049;-73
2021/04/12 08:01:49;;;;;;;8.75;7.90;;;;;;;2.86;81.71;97203.38;5046006;28;20041;-73
2021/04/12 08:04:43;;;;;;;8.82;7.93;;;;;;;2.93;81.02;97206.19;5045290;28;20036;-74
2021/04/12 08:07:30;;;;;;;9.80;8.00;;;;;;;3.03;81.20;97209.50;5038044;28;20045;-74
2021/04/12 08:10:52;;;;;;;9.25;8.35;;;;;;;3.15;81.64;97212.63;5049027;28;20036;-74
2021/04/12 08:13:55;;;;;;;9.30;8.45;;;;;;;3.22;79.70;97218.84;5025067;28;20036;-75
2021/04/12 08:16:50;;;;;;;10.88;8.95;;;;;;;3.22;80.99;97224.03;5019798;28;20041;-74
2021/04/12 08:19:30;;;;;;;9.98;8.65;;;;;;;3.15;80.60;97221.25;5035109;28;20485;-75
2021/04/12 08:22:28;;;;;;;11.07;9.98;;;;;;;3.15;80.54;97217.81;5042809;28;20029;-75
2021/04/12 08:25:38;;;;;;;9.68;8.68;;;;;;;3.05;80.09;97217.94;5045654;28;20396;-75
2021/04/12 08:28:42;;;;;;;9.68;8.63;;;;;;;2.96;79.56;97217.06;5035024;28;20067;-75
2021/04/12 08:31:28;;;;;;;10.30;8.70;;;;;;;2.97;80.48;97221.28;5023218;28;20041;-75
2021/04/12 08:34:25;;;;;;;11.35;9.60;;;;;;;3.02;78.79;97228.59;5042606;28;20033;-75
2021/04/12 08:37:23;;;;;;;9.95;8.95;;;;;;;3.05;80.53;97231.69;5042969;28;20046;-76
2021/04/12 08:40:22;;;;;;;9.57;8.68;;;;;;;3.10;79.73;97230.44;5041600;28;20056;-76
2021/04/12 08:42:58;;;;;;;10.70;8.68;;;;;;;3.16;80.23;97235.03;5043904;28;20033;-75
2021/04/12 08:45:38;;;;;;;10.60;9.50;;;;;;;3.22;79.92;97240.41;5026098;28;20064;-75
2021/04/12 08:48:35;;;;;;;9.75;8.63;;;;;;;3.19;78.58;97240.72;5043278;28;20045;-75
2021/04/12 08:51:26;;;;;;;10.98;9.15;;;;;;;3.24;79.56;97241.06;5035983;28;20072;-75
2021/04/12 08:54:17;;;;;;;9.07;7.97;;;;;;;3.32;79.04;97239.47;5012634;28;20051;-75
2021/04/12 08:56:43;;;;;;;9.07;8.18;;;;;;;3.41;79.38;97248.97;5032015;28;20045;-75
2021/04/12 08:59:41;;;;;;;9.80;8.02;;;;;;;3.50;79.38;97248.03;5042674;28;20063;-75
2021/04/12 09:02:57;;;;;;;8.43;6.88;;;;;;;3.68;84.47;97253.16;5034032;28;20072;-75
2021/04/12 09:05:48;;;;;;;7.68;6.88;;;;;;;3.90;76.63;97256.97;5032975;28;20428;-75
2021/04/12 09:08:32;;;;;;;7.00;6.30;;;;;;;3.85;77.24;97257.44;5043849;28;20056;-75
2021/04/12 09:11:11;;;;;;;7.43;6.72;;;;;;;3.84;77.63;97258.44;5025614;28;20033;-75
2021/04/12 09:13:43;;;;;;;7.30;5.55;;;;;;;3.92;77.76;97265.44;5041383;28;20048;-76
2021/04/12 09:16:25;;;;;;;7.22;6.38;;;;;;;3.95;75.02;97269.47;5048357;28;20060;-75
2021/04/12 09:19:03;;;;;;;7.18;5.50;;;;;;;3.75;72.32;97263.72;5048030;28;20033;-75
2021/04/12 09:22:05;;;;;;;6.30;5.70;;;;;;;3.71;74.46;97267.59;5043852;28;20041;-75
2021/04/12 09:25:03;;;;;;;6.70;5.45;;;;;;;3.82;75.79;97283.72;5037367;28;20041;-76
2021/04/12 09:27:38;;;;;;;6.72;5.43;;;;;;;3.87;75.74;97280.66;5040366;28;20032;-76
2021/04/12 09:30:18;;;;;;;5.90;5.38;;;;;;;3.93;74.09;97285.22;5044176;28;20036;-76
2021/04/12 09:33:21;;;;;;;4.70;4.30;;;;;;;4.10;73.86;97283.53;5042646;28;20052;-76
2021/04/12 09:36:10;;;;;;;5.45;4.82;;;;;;;4.25;73.95;97275.94;5039523;28;20488;-76
2021/04/12 09:39:11;;;;;;;4.68;4.18;;;;;;;4.55;71.18;97284.94;5037272;28;20488;-76
2021/04/12 09:42:14;;;;;;;6.03;4.07;;;;;;;4.75;70.75;97284.69;5042826;28;20048;-76
2021/04/12 09:45:01;;;;;;;5.03;4.53;;;;;;;4.82;74.38;97296.06;5037239;28;20044;-76
2021/04/12 09:47:46;;;;;;;5.03;4.05;;;;;;;4.93;73.35;97287.13;5043136;28;20048;-76
2021/04/12 09:50:37;;;;;;;5.18;4.03;;;;;;;5.02;72.22;97302.56;5044268;28;20040;-78
2021/04/12 09:53:50;;;;;;;6.80;5.85;;;;;;;5.16;67.54;97287.31;5060448;28;20044;-77
2021/04/12 09:56:53;;;;;;;3.47;3.10;;;;;;;5.21;68.24;97298.03;5048511;28;20119;-80
2021/04/12 09:59:43;;;;;;;4.25;3.38;;;;;;;5.19;65.59;97293.00;5059844;28;20032;-77
2021/04/12 10:02:36;;;;;;;3.25;2.95;;;;;;;5.35;66.79;97299.97;5068014;28;20040;-77
2021/04/12 10:06:00;;;;;;;4.00;3.50;;;;;;;5.33;66.56;97298.50;5066869;28;20044;-78
2021/04/12 10:08:40;;;;;;;3.97;2.72;;;;;;;5.29;70.08;97311.03;5056644;28;20045;-77
2021/04/12 10:11:11;;;;;;;4.20;3.15;;;;;;;5.38;69.88;97317.84;5063022;28;20033;-77
2021/04/12 10:13:55;;;;;;;5.07;3.88;;;;;;;5.52;70.03;97323.38;5059043;28;20040;-77
2021/04/12 10:16:29;;;;;;;2.97;2.78;;;;;;;5.47;69.56;97316.06;5061455;28;20048;-77
2021/04/12 10:19:07;;;;;;;3.80;3.45;;;;;;;5.44;64.09;97304.19;5045330;28;20048;-77
2021/04/12 10:22:02;;;;;;;2.80;2.33;;;;;;;5.31;63.23;97296.06;5068038;28;20029;-78
2021/04/12 10:25:06;;;;;;;2.63;2.17;;;;;;;5.25;62.49;97304.53;5064266;28;20037;-78
2021/04/12 10:27:49;;;;;;;5.25;2.70;;;;;;;5.45;66.43;97315.41;5050395;28;20039;-76
2021/04/12 10:30:28;;;;;;;2.53;2.33;;;;;;;5.84;63.14;97292.09;5063934;28;20461;-77
2021/04/12 10:33:03;;;;;;;4.07;2.30;;;;;;;5.83;64.35;97303.47;5062347;28;20377;-78
2021/04/12 10:35:31;;;;;;;2.72;2.33;;;;;;;5.90;65.80;97316.66;5058829;28;20059;-78
2021/04/12 10:38:06;;;;;;;2.50;2.25;;;;;;;6.14;65.76;97312.38;5070011;28;20484;-78
2021/04/12 10:40:58;;;;;;;2.08;1.95;;;;;;;6.32;62.81;97305.16;5063798;28;20038;-78
2021/04/12 10:43:32;;;;;;;2.45;2.25;;;;;;;6.51;65.11;97319.56;5054829;28;20440;-78
2021/04/12 10:46:32;;;;;;;3.28;2.85;;;;;;;6.42;58.89;97268.44;5060378;28;20060;-78
2021/04/12 10:49:15;;;;;;;3.50;2.20;;;;;;;6.39;59.77;97290.47;5054868;28;20057;-78
2021/04/12 10:51:48;;;;;;;2.60;2.00;;;;;;;6.30;61.89;97314.94;5063952;28;20040;-78
2021/04/12 10:54:36;;;;;;;2.42;1.90;;;;;;;6.35;58.05;97262.31;5069112;28;20036;-78
2021/04/12 10:57:02;;;;;;;;;;;;;;;6.57;57.19;97256.31;5063492;28;20032;-78
2021/04/12 10:59:40;;;;;;;2.63;2.22;;;;;;;6.74;57.84;97266.63;5064855;28;20411;-79
2021/04/12 11:02:19;;;;;;;3.50;1.95;;;;;;;7.16;59.60;97294.88;5062721;28;20484;-77
2021/04/12 11:05:03;;;;;;;2.05;1.52;;;;;;;7.53;55.80;97259.31;5043648;28;20029;-78
2021/04/12 11:08:10;;;;;;;2.53;1.77;;;;;;;7.64;51.84;97209.28;5056727;28;20029;-78
2021/04/12 11:11:10;;;;;;;2.42;1.70;;;;;;;7.52;57.81;97270.75;5057304;28;20393;-77
2021/04/12 11:13:42;;;;;;;2.20;2.00;;;;;;;7.34;55.30;97257.22;5057352;28;20053;-78
2021/04/12 11:16:19;;;;;;;2.10;1.90;;;;;;;7.37;55.27;97255.06;5058089;28;20032;-78
2021/04/12 11:19:08;;;;;;;2.08;1.88;;;;;;;7.31;54.58;97248.75;5061215;28;20049;-78
2021/04/12 11:21:42;;;;;;;2.08;1.90;;;;;;;7.41;56.48;97260.72;5050597;28;20044;-78
2021/04/12 11:24:26;;;;;;;2.30;2.10;;;;;;;7.51;53.96;97232.56;5060762;28;20045;-78
2021/04/12 11:27:23;;;;;;;4.13;2.20;;;;;;;7.34;52.91;97228.50;5061514;28;20044;-78
2021/04/12 11:30:00;;;;;;;1.80;1.70;;;;;;;7.16;54.21;97245.31;5056350;28;20044;-78
2021/04/12 11:33:08;;;;;;;2.63;2.42;;;;;;;7.28;55.90;97259.53;5063539;28;20400;-78
2021/04/12 11:35:53;;;;;;;2.65;2.05;;;;;;;7.52;52.68;97229.78;5043550;28;20049;-78
2021/04/12 11:38:31;;;;;;;2.80;2.22;;;;;;;7.67;54.18;97234.22;5065153;28;20048;-77
2021/04/12 11:41:03;;;;;;;3.75;2.70;;;;;;;7.73;55.00;97242.13;5067269;28;20036;-78
2021/04/12 11:43:36;;;;;;;2.70;2.50;;;;;;;8.05;55.01;97250.59;5063790;28;20458;-78
2021/04/12 11:46:15;;;;;;;2.42;2.22;;;;;;;8.44;54.78;97243.41;5058987;28;20394;-77
2021/04/12 11:48:50;;;;;;;2.50;2.30;;;;;;;8.69;53.46;97234.25;5036952;28;20050;-77
2021/04/12 11:51:26;;;;;;;2.33;1.98;;;;;;;8.87;50.87;97199.00;5032919;28;20037;-77
2021/04/12 11:53:57;;;;;;;2.03;1.92;;;;;;;9.20;51.73;97207.13;5040941;28;20047;-77
2021/04/12 11:57:10;;;;;;;2.35;2.15;;;;;;;9.34;44.61;97129.47;5043364;28;20042;-77
2021/04/12 11:59:52;;;;;;;2.40;2.17;;;;;;;9.41;48.48;97198.41;5038066;28;20052;-77
2021/04/12 12:02:48;;;;;;;2.85;2.00;;;;;;;9.23;46.53;97191.03;5046206;28;20033;-77
2021/04/12 12:05:25;;;;;;;2.10;2.00;;;;;;;8.90;49.23;97216.91;5017823;28;20044;-77
2021/04/12 12:08:09;;;;;;;2.60;1.92;;;;;;;8.59;50.23;97228.53;5041259;28;20049;-77
2021/04/12 12:11:04;;;;;;;2.85;2.20;;;;;;;8.16;49.22;97225.78;5039067;28;20048;-77
2021/04/12 12:13:55;;;;;;;3.45;2.20;;;;;;;7.88;49.57;97238.72;5039949;28;20048;-77
2021/04/12 12:16:28;;;;;;;2.95;2.33;;;;;;;7.61;50.97;97254.00;5044987;28;20385;-77
2021/04/12 12:19:00;;;;;;;2.40;2.20;;;;;;;7.26;49.61;97237.22;5025911;28;20045;-77
2021/04/12 12:22:13;;;;;;;2.45;2.00;;;;;;;6.89;50.03;97242.25;5044637;28;20041;-77
2021/04/12 12:24:47;;;;;;;3.78;2.40;;;;;;;6.61;54.64;97275.03;5005799;28;20036;-76
2021/04/12 12:27:25;;;;;;;2.45;2.22;;;;;;;6.60;50.89;97250.75;5042406;28;20037;-77
2021/04/12 12:30:00;;;;;;;2.65;2.42;;;;;;;6.34;51.71;97261.50;5043953;28;20060;-77
2021/04/12 12:32:39;;;;;;;5.20;2.83;;;;;;;6.12;51.72;97257.03;5040592;28;20393;-77
2021/04/12 12:35:22;;;;;;;3.55;2.30;;;;;;;5.95;51.67;97251.91;5043048;28;20045;-77
2021/04/12 12:37:58;;;;;;;5.22;2.40;;;;;;;5.89;52.40;97268.97;5049631;28;20040;-77
2021/04/12 12:40:34;;;;;;;2.05;1.90;;;;;;;6.06;52.68;97277.56;5045413;28;20037;-77
2021/04/12 12:43:06;;;;;;;2.03;1.80;;;;;;;6.21;52.82;97275.06;5043489;28;20033;-76
2021/04/12 12:45:37;;;;;;;4.03;2.40;;;;;;;6.36;52.24;97267.34;5044067;28;20068;-77
2021/04/12 12:48:27;;;;;;;2.33;2.05;;;;;;;6.61;52.25;97270.63;5043374;28;20068;-77
2021/04/12 12:51:16;;;;;;;2.50;2.03;;;;;;;6.81;50.14;97250.13;5042376;28;20041;-77
2021/04/12 12:53:49;;;;;;;2.88;1.98;;;;;;;6.91;51.27;97265.56;5032594;28;20497;-77
2021/04/12 12:56:27;;;;;;;2.60;1.90;;;;;;;7.19;51.04;97268.44;5039302;28;20378;-77
2021/04/12 12:59:05;;;;;;;3.50;2.08;;;;;;;7.64;48.34;97231.94;5026837;28;20489;-77
2021/04/12 13:01:42;;;;;;;1.90;1.80;;;;;;;8.25;49.72;97245.63;5033927;28;20366;-77
2021/04/12 13:04:16;;;;;;;1.77;1.67;;;;;;;8.60;49.71;97231.94;5036286;28;20037;-77
2021/04/12 13:06:43;;;;;;;2.47;2.23;;;;;;;9.04;50.01;97231.75;5042225;28;20041;-77
2021/04/12 13:09:22;;;;;;;2.08;1.98;;;;;;;9.42;48.46;97228.00;5040128;28;20053;-77
2021/04/12 13:11:51;;;;;;;1.80;1.70;;;;;;;9.61;47.18;97214.22;5019261;28;20511;-77
2021/04/12 13:14:33;;;;;;;2.83;1.80;;;;;;;9.13;44.24;97191.38;5044238;28;20497;-77
2021/04/12 13:17:15;;;;;;;1.98;1.80;;;;;;;8.57;46.87;97261.88;5040539;28;20060;-77